Flight Number: EUR3002 Duration: 8:30
Departure: Budapest Ferihegy (LHBP) at 05:30 Distance: 2982 Nm
Arrival: Montreal (CYUL) at 15:00 Equipment: B747

Weather Information
Budapest / Ferihegy, Hungary (LHBP) 47-26N 019-16E 185M Jan 22, 2018 - 03:00 AM EST / 2018.01.22 0800 UTC
Wind: from the N (350 degrees) at 7 MPH (6 KT) (direction variable):0
Visibility: greater than 7 mile(s):0 Temperature: 28 F (-2 C)
Windchill: 21 F (-6 C):1 Dew Point: 26 F (-3 C) Relative Humidity: 92% Pressure (altimeter): 30.00 in. Hg (1016 hPa)
ob: LHBP 220800Z 35006KT 310V020 CAVOK M02/M03 Q1016 R88/19//95 NOSIG cycle: 8
Sunrise: 06:23 Sunset: 15:25 (UTC)

Montreal / Pierre Elliot Trudeau International Airport, Que, Canada (CYUL) 45-28N 073-45W 36M Jan 22, 2018 - 03:00 AM EST / 2018.01.22 0800 UTC
Wind: from the NE (040 degrees) at 18 MPH (16 KT):0
Visibility: 4 mile(s):0
Sky conditions: overcast Weather: light snow; low drifting snow Temperature: 17 F (-8 C)
Windchill: 1 F (-17 C):1 Dew Point: 12 F (-11 C) Relative Humidity: 78% Pressure (altimeter): 30.27 in. Hg (1025 hPa)
ob: CYUL 220800Z 04016KT 4SM -SN DRSN BKN043 OVC110 M08/M11 A3027 RMK SC6AC2 SLP254 cycle: 8
Sunrise: 12:29 Sunset: 21:44 (UTC)

TAF:2018/01/22 06:45 TAF CYUL 220542Z 2206/2306 05015KT P6SM -SN OVC050 TEMPO 2206/2209 5SM -SN OVC030 BECMG 2211/2213 04015G25KT FM222100 04020G30KT 3/4SM -SN BLSN VV008 PROB30 2303/2305 11/2SM -SNPL FM230500 04015G25KT 11/2SM -PLSN OVC007 RMK NXT FCST BY 220900Z

Previous Pireps for this route
Date Aircraft Flight time Fuel used Landing rate On time
2016-10-01B74708.48193159-175No
(pireps marked green are flown by you)

Route map